Montreal / St-Lazare Airport

CST3 · Quebec, Canada

October 2, 2022

Time Code Weather Temp. Visibility Ceiling Wind METAR/SPECI
08:00
V
4 °C 45 mi - 040° 040° 3 kt METAR CYMX 021200Z 04003KT 45SM FEW250 04/M02 A3040 RMK CI2 SLP300
07:00
V
3 °C 30 mi - Var Var 2 kt METAR CYMX 021100Z VRB02KT 30SM FEW250 03/M02 A3039 RMK CI1 SLP295
06:00
V
4 °C 25 mi - Var Var 4 kt METAR CYMX 021000Z VRB04KT 25SM FEW240 04/M02 A3037 RMK CI1 SLP288
05:00
V
4 °C 25 mi - Var 000° 0 kt METAR CYMX 020900Z 00000KT 25SM SKC 04/M02 A3036 RMK SLP284
04:00
V
5 °C 25 mi - Var Var 4 kt METAR CYMX 020800Z VRB04KT 25SM FEW250 05/M02 A3034 RMK CI1 SLP277
03:00
V
6 °C 25 mi - Var Var 5 kt METAR CYMX 020700Z VRB05KT 25SM FEW250 06/M01 A3033 RMK CI1 SLP275
02:00
V
6 °C 25 mi - 030° 030° 5 kt METAR CYMX 020600Z 03005KT 330V100 25SM SKC 06/M00 A3033 RMK SLP274
01:00
V
7 °C 25 mi - Var Var 7 kt METAR CYMX 020500Z VRB07KT 25SM FEW250 07/00 A3032 RMK CI1 SLP272
00:00
V
8 °C 25 mi - Var 000° 0 kt METAR CYMX 020400Z 00000KT 25SM FEW250 08/01 A3031 RMK CI1 SLP267

October 1, 2022

Time Code Weather Temp. Visibility Ceiling Wind METAR/SPECI
23:00
V
9 °C 25 mi - 360° 360° 7 kt METAR CYMX 020300Z 36007KT 330V040 25SM SKC 09/02 A3029 RMK SLP260
22:00
V
10 °C 25 mi - 360° 360° 3 kt METAR CYMX 020200Z 36003KT 320V100 25SM FEW240 10/04 A3028 RMK CI2 SLP257
21:00
V
11 °C 25 mi - 010° 010° 5 kt METAR CYMX 020100Z 01005KT 25SM SCT040 SCT250 11/06 A3026 RMK SC3CI1 SLP252
20:00
V
13 °C 25 mi 25,000 ft 360° 360° 6 kt METAR CYMX 020000Z 36006KT 25SM SCT040 BKN250 13/08 A3024 RMK SC4CI1 SLP245
19:00
V
14 °C 25 mi - 360° 360° 4 kt METAR CYMX 012300Z 36004KT 330V060 25SM FEW040 SCT250 14/08 A3022 RMK SC2CI1 SLP237
18:00
V
15 °C 25 mi 4,700 ft 040° 040° 4 kt METAR CYMX 012200Z 04004KT 25SM BKN047 BKN240 15/09 A3019 RMK SC6CS1 SLP229
17:00
V
16 °C 30 mi 4,400 ft Var Var 2 kt METAR CYMX 012100Z VRB02KT 30SM BKN044 OVC240 16/11 A3017 RMK SC6CS2 SLP222
16:00
V
17 °C 30 mi 25,000 ft 070° 070° 3 kt METAR CYMX 012000Z 07003KT 020V100 30SM FEW150 OVC250 17/09 A3016 RMK AC2CS6 SLP217 DENSITY ALT 300FT
15:00
V
17 °C 30 mi 25,000 ft 080° 080° 6 kt METAR CYMX 011900Z 08006KT 030V110 30SM FEW160 OVC250 17/09 A3016 RMK AC1CS7 SLP216 DENSITY ALT 300FT
14:00
V
17 °C 30 mi 25,000 ft Var Var 2 kt METAR CYMX 011800Z VRB02KT 30SM FEW220 BKN250 17/09 A3017 RMK CI1CS6 SLP221 DENSITY ALT 300FT
13:00
V
16 °C 30 mi 25,000 ft Var 000° 0 kt METAR CYMX 011700Z 00000KT 30SM FEW230 BKN250 16/08 A3019 RMK CI1CS6 SLP226
12:00
V
15 °C 30 mi 25,000 ft 040° 040° 4 kt METAR CYMX 011600Z 04004KT 010V090 30SM FEW220 BKN250 15/08 A3019 RMK CI1CS6 SLP226
11:00
V
14 °C 30 mi 25,000 ft 080° 080° 5 kt METAR CYMX 011500Z 08005KT 040V100 30SM FEW160 BKN250 14/08 A3019 RMK AC1CS7 AC TR SLP228
10:00
V
12 °C 30 mi 24,000 ft Var Var 2 kt METAR CYMX 011400Z VRB02KT 30SM BKN240 BKN260 12/08 A3019 RMK CS6CI1 SLP227
09:00
V
9 °C 30 mi 26,000 ft 330° 330° 2 kt METAR CYMX 011300Z 33002KT 30SM SCT230 BKN260 09/07 A3018 RMK CI4CI3 SLP225
08:00
V
6 °C 30 mi 23,000 ft Var 000° 0 kt METAR CYMX 011200Z 00000KT 30SM SCT180 BKN230 BKN260 06/06 A3017 RMK AC3CI2CI2 SLP221
07:00
V
5 °C 25 mi - Var Var 2 kt METAR CYMX 011100Z VRB02KT 25SM FEW230 SCT260 05/05 A3018 RMK CI2CI2 SLP223
06:00
V
4 °C 25 mi - Var Var 2 kt METAR CYMX 011000Z VRB02KT 25SM SCT250 04/04 A3016 RMK CI3 SLP218
05:00
V
5 °C 25 mi - Var Var 2 kt METAR CYMX 010900Z VRB02KT 25SM FEW250 05/05 A3015 RMK CI2 SLP215
04:00
V
7 °C 25 mi - 230° 230° 3 kt METAR CYMX 010800Z 23003KT 25SM SCT250 07/06 A3015 RMK CI3 SLP215
03:00
V
6 °C 25 mi - 250° 250° 4 kt METAR CYMX 010700Z 25004KT 25SM SCT250 06/06 A3017 RMK CI3 SLP220
02:00
V
6 °C 25 mi - 250° 250° 3 kt METAR CYMX 010600Z 25003KT 25SM SCT240 06/06 A3018 RMK CI4 SLP223
01:00
V
7 °C 25 mi - Var 000° 0 kt METAR CYMX 010500Z 00000KT 25SM SKC 07/06 A3018 RMK SLP225
00:00
V
9 °C 25 mi - 270° 270° 3 kt METAR CYMX 010400Z 27003KT 25SM SKC 09/06 A3019 RMK SLP228

September 30, 2022

Time Code Weather Temp. Visibility Ceiling Wind METAR/SPECI
23:00
V
10 °C 25 mi - 250° 250° 4 kt METAR CYMX 010300Z 25004KT 230V290 25SM SCT250 10/07 A3019 RMK CI3 SLP226
22:00
V
10 °C 25 mi - 230° 230° 2 kt METAR CYMX 010200Z 23002KT 25SM SCT250 10/07 A3019 RMK CI3 SLP228
21:00
V
10 °C 25 mi - Var Var 2 kt METAR CYMX 010100Z VRB02KT 25SM FEW240 10/07 A3020 RMK CI2 SLP231
20:00
V
11 °C 25 mi - 210° 210° 4 kt METAR CYMX 010000Z 21004KT 25SM FEW250 11/07 A3020 RMK CI1 CI TR SLP233
19:00
V
12 °C 25 mi - 210° 210° 3 kt METAR CYMX 302300Z 21003KT 25SM FEW250 12/07 A3020 RMK CI2 SLP233
18:00
V
15 °C 45 mi - 210° 210° 4 kt METAR CYMX 302200Z 21004KT 45SM FEW250 15/06 A3021 RMK CI4 SLP234
17:00
V
17 °C 45 mi - 230° 230° 5 kt METAR CYMX 302100Z 23005KT 190V270 45SM SCT250 17/05 A3022 RMK CI3 SLP238
16:00
V
17 °C 45 mi - 210° 210° 7 kt METAR CYMX 302000Z 21007KT 170V250 45SM FEW250 17/06 A3023 RMK CI2 SLP242
15:00
V
17 °C 45 mi - 210° 210° 7 kt METAR CYMX 301900Z 21007KT 190V270 45SM FEW250 17/06 A3026 RMK CI2 SLP250
14:00
V
16 °C 45 mi - 220° 220° 5 kt METAR CYMX 301800Z 22005KT 190V290 45SM FEW250 16/06 A3029 RMK CI1 SLP262
13:00
V
15 °C 25 mi - 220° 220° 5 kt METAR CYMX 301700Z 22005KT 180V270 25SM FEW250 15/06 A3032 RMK CI2 SLP272
12:00
V
15 °C 25 mi - 210° 210° 6 kt METAR CYMX 301600Z 21006KT 190V280 25SM FEW250 15/06 A3034 RMK CI1 SLP280
11:00
V
13 °C 25 mi - 220° 220° 8 kt METAR CYMX 301500Z 22008KT 180V270 25SM FEW250 13/05 A3036 RMK CI1 CI TR SLP286
10:00
V
11 °C 25 mi - 240° 240° 4 kt METAR CYMX 301400Z 24004KT 200V280 25SM FEW250 11/06 A3038 RMK CI1 CI TR SLP291
09:01
V
8 °C 25 mi - 220° 220° 2 kt METAR CYMX 301301Z 22002KT 25SM FEW250 08/06 A3038 RMK CI1 CI TR VIA CYQB SLP292
Older data

We and third parties follow your internet behavior on our website with cookies. If you continue, we assume you agree with our cookie policy. Learn more